Lima Duarte, Brazil
Current Conditions -  °F | °C
As of 8:00 PM on Monday 26 Jan 2015 (Local Time) from SBBQ Reporting Station
Thunderstorm Thunderstorm  
Wind Chill: 64°   Ceiling: 2500
Heat Index: 64°   Visibility: 1.8mi
Dew Point: 63°   Wind: 2mph
Humidity: 94%   Direction: 320°NW
Pressure: 30.15"   Gusts: NA
Location:  21.84°S, 43.79°W
Report Text: SBBQ 262200Z 32002KT 3000 -TSRA BKN025 FEW035CB 18/17 Q1021
Loading
Personal Weather Stations






























Interactive Weather Map New forecast layout! Learn more

10-Day Weather Forecast

Advertisements
Track Severe Weather on mobile